Time;durP1;ratioP1;P1;durP2;ratioP2;P2;SDS_P1;SDS_P2;PMS_P1;PMS_P2;Temp;Humidity;BMP_temperature;BMP_pressure;BME280_temperature;BME280_humidity;BME280_pressure;Samples;Min_cycle;Max_cycle;Signal;HPM_P1;HPM_P2
2022/09/25 00:00:08;;;;;;;18.20;3.70;;;;;;;17.32;100.00;101443.31;4991181;28;20031;-53
2022/09/25 00:02:34;;;;;;;24.23;4.88;;;;;;;17.29;100.00;101449.13;5001983;28;20050;-55
2022/09/25 00:04:59;;;;;;;15.90;4.23;;;;;;;17.24;100.00;101445.47;4996549;28;20033;-53
2022/09/25 00:07:25;;;;;;;17.27;5.43;;;;;;;17.26;100.00;101448.78;5006905;28;20034;-54
2022/09/25 00:09:50;;;;;;;13.25;4.95;;;;;;;17.23;100.00;101450.03;5004177;28;20057;-53
2022/09/25 00:12:16;;;;;;;16.50;5.20;;;;;;;17.19;100.00;101454.25;5007040;28;20064;-55
2022/09/25 00:14:41;;;;;;;15.88;4.22;;;;;;;17.15;100.00;101453.06;4998669;28;20114;-55
2022/09/25 00:17:07;;;;;;;16.48;3.88;;;;;;;17.14;100.00;101462.22;4994044;28;20039;-54
2022/09/25 00:19:50;;;;;;;15.23;3.70;;;;;;;17.11;100.00;101452.66;5003176;28;20042;-54
2022/09/25 00:22:17;;;;;;;10.77;4.10;;;;;;;17.12;100.00;101454.31;4997534;28;20039;-54
2022/09/25 00:24:43;;;;;;;15.10;4.20;;;;;;;17.02;100.00;101452.13;4991100;28;20276;-54
2022/09/25 00:27:09;;;;;;;13.07;3.57;;;;;;;17.03;100.00;101445.69;5004829;28;20299;-50
2022/09/25 00:29:36;;;;;;;11.73;3.28;;;;;;;17.04;100.00;101444.63;5010501;28;20295;-52
2022/09/25 00:32:10;;;;;;;13.43;4.00;;;;;;;16.99;100.00;101447.19;4993339;28;20144;-55
2022/09/25 00:34:37;;;;;;;12.17;4.77;;;;;;;16.96;100.00;101447.59;4991361;28;20383;-54
2022/09/25 00:37:03;;;;;;;16.23;4.07;;;;;;;16.96;100.00;101446.78;4995658;28;20275;-51
2022/09/25 00:39:31;;;;;;;13.95;3.72;;;;;;;16.90;100.00;101453.91;4997475;28;20332;-56
2022/09/25 00:41:57;;;;;;;10.97;4.50;;;;;;;16.86;100.00;101452.69;5000924;28;20028;-57
2022/09/25 00:44:55;;;;;;;12.00;3.77;;;;;;;16.84;100.00;101457.47;4996994;28;20291;-57
2022/09/25 00:47:25;;;;;;;;;;;;;;;16.78;100.00;101453.81;5010028;28;20280;-52
2022/09/25 00:49:53;;;;;;;12.03;4.03;;;;;;;16.76;100.00;101461.31;4993835;28;19918;-53
2022/09/25 00:52:21;;;;;;;15.57;3.70;;;;;;;16.75;100.00;101456.97;5001124;28;20275;-51
2022/09/25 00:54:52;;;;;;;13.30;3.80;;;;;;;16.71;100.00;101453.88;5002238;28;20269;-57
2022/09/25 00:57:20;;;;;;;12.10;3.87;;;;;;;16.67;100.00;101457.22;4993676;28;20287;-54
2022/09/25 00:59:51;;;;;;;8.20;3.70;;;;;;;16.60;100.00;101454.56;4988282;28;20295;-55
2022/09/25 01:02:25;;;;;;;14.67;3.97;;;;;;;16.55;100.00;101457.13;4994933;28;20269;-56
2022/09/25 01:04:53;;;;;;;14.37;4.10;;;;;;;16.53;100.00;101460.06;4991428;28;20296;-52
2022/09/25 01:07:19;;;;;;;12.40;4.33;;;;;;;16.41;100.00;101461.78;5010062;28;20284;-55
2022/09/25 01:09:45;;;;;;;14.13;4.00;;;;;;;16.29;100.00;101449.03;4993390;28;20264;-54
2022/09/25 01:12:11;;;;;;;10.60;3.88;;;;;;;16.46;100.00;101460.09;4990563;28;20273;-53
2022/09/25 01:14:38;;;;;;;9.05;4.13;;;;;;;16.39;100.00;101459.34;4996556;28;20046;-53
2022/09/25 01:17:28;;;;;;;11.53;4.00;;;;;;;16.41;100.00;101461.78;4999891;28;20039;-56
2022/09/25 01:20:21;;;;;;;12.17;4.27;;;;;;;16.32;100.00;101448.59;5007298;28;20273;-54
2022/09/25 01:23:19;;;;;;;10.63;3.87;;;;;;;16.36;100.00;101457.03;4986650;28;20291;-56
2022/09/25 01:26:12;;;;;;;15.90;4.13;;;;;;;16.39;100.00;101461.19;4996208;28;20265;-52
2022/09/25 01:29:00;;;;;;;12.93;4.37;;;;;;;16.26;100.00;101464.81;5012829;28;20273;-53
2022/09/25 01:31:49;;;;;;;18.97;4.00;;;;;;;16.20;100.00;101450.31;5012555;28;20338;-51
2022/09/25 01:34:25;;;;;;;17.47;4.87;;;;;;;16.39;100.00;101445.84;5003631;28;20334;-50
2022/09/25 01:37:01;;;;;;;15.30;4.87;;;;;;;16.30;100.00;101452.53;5014291;28;20273;-50
2022/09/25 01:39:34;;;;;;;15.13;4.68;;;;;;;16.22;100.00;101463.59;5004851;28;20293;-54
2022/09/25 01:42:10;;;;;;;13.13;4.00;;;;;;;16.22;100.00;101452.81;4997198;28;20065;-54
2022/09/25 01:44:38;;;;;;;;;;;;;;;16.13;100.00;101460.34;4993503;28;20265;-55
2022/09/25 01:47:17;;;;;;;11.67;3.97;;;;;;;15.99;100.00;101449.63;4994771;28;19918;-54
2022/09/25 01:50:06;;;;;;;12.80;4.50;;;;;;;16.02;100.00;101454.56;4991796;28;20043;-51
2022/09/25 01:52:38;;;;;;;10.33;4.23;;;;;;;15.93;100.00;101455.88;4999062;28;21014;-52
2022/09/25 01:55:37;;;;;;;13.93;4.67;;;;;;;15.89;100.00;101460.88;4997107;28;20366;-51
2022/09/25 01:58:10;;;;;;;10.10;4.30;;;;;;;15.80;100.00;101467.53;5012018;28;20286;-52
2022/09/25 02:00:43;;;;;;;11.60;3.93;;;;;;;15.83;100.00;101467.09;5005086;28;20287;-53
2022/09/25 02:03:36;;;;;;;12.67;4.67;;;;;;;15.83;100.00;101460.91;5008575;28;20273;-55
2022/09/25 02:06:08;;;;;;;11.60;4.70;;;;;;;15.83;100.00;101461.72;4996944;28;20289;-55
2022/09/25 02:08:39;;;;;;;19.93;5.43;;;;;;;15.78;100.00;101458.84;4998745;28;20269;-55
2022/09/25 02:11:06;;;;;;;11.83;4.17;;;;;;;15.78;100.00;101451.56;5018396;28;20291;-53
2022/09/25 02:13:39;;;;;;;13.30;4.77;;;;;;;15.83;100.00;101452.81;5004447;28;20271;-52
2022/09/25 02:16:11;;;;;;;14.93;5.13;;;;;;;15.82;100.00;101453.84;4997189;28;20265;-51
2022/09/25 02:21:43;;;;;;;10.43;4.17;;;;;;;15.77;100.00;101447.22;5003879;28;20265;-53
2022/09/25 02:24:21;;;;;;;12.48;4.60;;;;;;;15.76;100.00;101456.34;5006587;28;20280;-54
2022/09/25 02:26:48;;;;;;;26.90;4.63;;;;;;;15.72;100.00;101449.72;4990759;28;20126;-56
2022/09/25 02:29:14;;;;;;;12.10;3.77;;;;;;;15.76;100.00;101455.53;5008255;28;20261;-52
2022/09/25 02:31:52;;;;;;;10.80;4.03;;;;;;;15.75;100.00;101456.56;4999519;28;20273;-54
2022/09/25 02:34:19;;;;;;;9.50;4.30;;;;;;;15.73;100.00;101455.97;4990373;28;20042;-56
2022/09/25 02:36:44;;;;;;;;;;;;;;;15.65;100.00;101448.09;5007528;28;20333;-51
2022/09/25 02:39:12;;;;;;;8.03;4.10;;;;;;;15.58;100.00;101454.34;5003991;28;19968;-55
2022/09/25 02:42:08;;;;;;;9.87;4.50;;;;;;;15.62;100.00;101452.06;4997954;28;20055;-56
2022/09/25 02:44:52;;;;;;;12.00;4.40;;;;;;;15.58;100.00;101451.66;5011339;28;20353;-50
2022/09/25 02:47:51;;;;;;;9.27;4.20;;;;;;;15.54;100.00;101457.69;4996572;28;20352;-51
2022/09/25 02:50:46;;;;;;;13.00;4.17;;;;;;;15.51;100.00;101456.25;4990674;28;20287;-53
2022/09/25 02:53:32;;;;;;;11.87;4.67;;;;;;;15.40;100.00;101446.97;4994857;28;20349;-56
2022/09/25 02:56:03;;;;;;;23.45;4.97;;;;;;;15.49;100.00;101459.16;4991355;28;20273;-55
2022/09/25 02:58:38;;;;;;;9.17;4.27;;;;;;;15.56;100.00;101450.22;5000830;28;20056;-52
2022/09/25 03:01:08;;;;;;;9.07;4.70;;;;;;;15.52;100.00;101452.53;4998988;28;20280;-55
2022/09/25 03:03:36;;;;;;;13.63;5.20;;;;;;;15.44;100.00;101452.75;5003098;28;20277;-55
2022/09/25 03:06:03;;;;;;;10.80;4.53;;;;;;;15.43;100.00;101451.09;5011448;28;20331;-55
2022/09/25 03:08:40;;;;;;;8.80;4.37;;;;;;;15.43;100.00;101451.94;5002650;28;20266;-53
2022/09/25 03:11:15;;;;;;;10.52;5.03;;;;;;;15.41;100.00;101450.47;4998300;28;20271;-51
2022/09/25 03:13:41;;;;;;;15.50;5.07;;;;;;;15.42;100.00;101449.44;4989043;28;20035;-51
2022/09/25 03:16:15;;;;;;;13.82;5.40;;;;;;;15.42;100.00;101442.19;5004919;28;20274;-52
2022/09/25 03:18:40;;;;;;;14.67;5.00;;;;;;;15.34;100.00;101443.25;5019757;28;20039;-55
2022/09/25 03:21:06;;;;;;;9.43;5.07;;;;;;;15.34;100.00;101445.13;4999590;28;20273;-56
2022/09/25 03:23:32;;;;;;;12.45;4.75;;;;;;;15.30;100.00;101447.41;5007442;28;20034;-54
2022/09/25 03:25:58;;;;;;;12.03;4.37;;;;;;;15.38;100.00;101442.81;5005657;28;20074;-55
2022/09/25 03:28:24;;;;;;;11.93;4.60;;;;;;;15.28;100.00;101441.41;5001895;28;20026;-55
2022/09/25 03:31:05;;;;;;;9.23;4.18;;;;;;;15.20;100.00;101450.56;5016384;28;20042;-54
2022/09/25 03:33:38;;;;;;;13.87;5.47;;;;;;;15.18;100.00;101441.00;5011000;28;20041;-54
2022/09/25 03:36:19;;;;;;;8.27;4.20;;;;;;;15.12;100.00;101447.25;5011425;28;20341;-51
2022/09/25 03:38:48;;;;;;;11.60;4.33;;;;;;;15.11;100.00;101449.13;5005264;28;20295;-51
2022/09/25 03:41:18;;;;;;;9.73;4.80;;;;;;;15.06;100.00;101440.84;5000293;28;20349;-52
2022/09/25 03:43:46;;;;;;;18.60;5.63;;;;;;;15.10;100.00;101443.94;5012682;28;20288;-51
2022/09/25 03:46:13;;;;;;;9.57;4.77;;;;;;;15.04;100.00;101432.97;5003889;28;20260;-56
2022/09/25 03:48:39;;;;;;;12.93;5.13;;;;;;;15.08;100.00;101441.44;5012262;28;20330;-50
2022/09/25 03:51:06;;;;;;;7.85;4.30;;;;;;;14.73;100.00;101436.34;5011010;28;20281;-53
2022/09/25 03:53:32;;;;;;;14.87;5.00;;;;;;;14.65;100.00;101434.66;5002250;28;20039;-56
2022/09/25 03:56:04;;;;;;;9.90;4.40;;;;;;;14.63;100.00;101424.09;5001029;28;20271;-55
2022/09/25 03:58:29;;;;;;;11.10;5.57;;;;;;;14.95;100.00;101434.22;5001839;28;20035;-53
2022/09/25 04:00:56;;;;;;;11.65;4.82;;;;;;;15.02;100.00;101431.53;4999140;28;20285;-57
2022/09/25 04:03:23;;;;;;;17.98;6.78;;;;;;;15.06;100.00;101440.84;5015107;28;20046;-53
2022/09/25 04:05:49;;;;;;;17.90;4.90;;;;;;;15.02;100.00;101440.44;4988254;28;20027;-54
2022/09/25 04:08:15;;;;;;;10.90;5.20;;;;;;;14.98;100.00;101444.56;5010615;28;20294;-54
2022/09/25 04:10:41;;;;;;;8.23;4.28;;;;;;;15.00;100.00;101441.69;5012838;28;20069;-54
2022/09/25 04:13:11;;;;;;;6.83;4.00;;;;;;;14.96;100.00;101441.25;5002310;28;20050;-56
2022/09/25 04:15:39;;;;;;;15.43;6.03;;;;;;;14.84;100.00;101438.38;5000567;28;20031;-54
2022/09/25 04:18:05;;;;;;;13.43;5.70;;;;;;;14.88;100.00;101439.66;5012343;28;20289;-52
2022/09/25 04:20:31;;;;;;;12.05;4.93;;;;;;;14.93;100.00;101438.19;5012274;28;20348;-51
2022/09/25 04:22:56;;;;;;;11.75;5.53;;;;;;;14.91;100.00;101433.84;5001743;28;20045;-53
2022/09/25 04:25:24;;;;;;;16.75;5.65;;;;;;;14.90;100.00;101442.13;5002278;28;20034;-54
2022/09/25 04:27:57;;;;;;;11.33;4.93;;;;;;;14.95;100.00;101434.22;4990762;28;20053;-56
2022/09/25 04:30:27;;;;;;;13.10;5.90;;;;;;;15.01;100.00;101435.25;4996830;28;20286;-54
2022/09/25 04:35:40;;;;;;;18.27;5.50;;;;;;;14.99;100.00;101434.66;4997431;28;20277;-54
2022/09/25 04:38:06;;;;;;;22.40;7.27;;;;;;;14.96;100.00;101438.56;5002943;28;20285;-56
2022/09/25 04:40:32;;;;;;;17.73;6.10;;;;;;;14.98;100.00;101428.41;5001673;28;20269;-52
2022/09/25 04:42:59;;;;;;;10.03;5.17;;;;;;;14.91;100.00;101425.75;5001775;28;20043;-54
2022/09/25 04:45:26;;;;;;;16.77;5.87;;;;;;;14.97;100.00;101432.16;5008543;28;20038;-56
2022/09/25 04:47:53;;;;;;;11.30;5.40;;;;;;;14.98;100.00;101439.19;5001652;28;20277;-57
2022/09/25 04:50:20;;;;;;;17.53;5.90;;;;;;;14.96;100.00;101437.75;5019722;28;20301;-51
2022/09/25 04:52:50;;;;;;;11.80;6.00;;;;;;;14.93;100.00;101428.22;4991947;28;20265;-52
2022/09/25 04:55:18;;;;;;;16.57;5.13;;;;;;;14.90;100.00;101431.34;4989799;28;20337;-55
2022/09/25 04:57:43;;;;;;;12.83;5.23;;;;;;;14.97;100.00;101431.34;5001004;28;20291;-54
2022/09/25 05:00:10;;;;;;;9.82;4.93;;;;;;;14.98;100.00;101425.72;5000049;28;20272;-52
2022/09/25 05:02:35;;;;;;;9.77;4.65;;;;;;;14.86;100.00;101419.34;4990743;28;20031;-55
2022/09/25 05:05:01;;;;;;;16.65;6.15;;;;;;;14.83;100.00;101425.97;4998437;28;20065;-52
2022/09/25 05:07:26;;;;;;;11.45;4.72;;;;;;;14.82;100.00;101424.31;4994218;28;20041;-56
2022/09/25 05:09:52;;;;;;;11.30;5.47;;;;;;;14.81;100.00;101421.84;5018883;28;20031;-54
2022/09/25 05:12:18;;;;;;;18.38;5.78;;;;;;;14.95;100.00;101420.75;5005861;28;20261;-54
2022/09/25 05:14:44;;;;;;;13.85;5.35;;;;;;;14.83;100.00;101415.19;5001808;28;20098;-53
2022/09/25 05:17:10;;;;;;;12.20;5.05;;;;;;;14.82;100.00;101413.53;5017975;28;20035;-52
2022/09/25 05:19:37;;;;;;;9.45;5.20;;;;;;;14.79;100.00;101421.22;4999851;28;20039;-51
2022/09/25 05:22:02;;;;;;;11.15;5.63;;;;;;;14.77;100.00;101418.72;5012561;28;20036;-53
2022/09/25 05:24:30;;;;;;;15.50;5.63;;;;;;;14.71;100.00;101423.06;5002194;28;20098;-53
2022/09/25 05:26:56;;;;;;;9.73;4.60;;;;;;;14.69;100.00;101419.75;5014947;28;20035;-55
2022/09/25 05:29:22;;;;;;;12.60;4.95;;;;;;;14.76;100.00;101423.31;5004401;28;20269;-56
2022/09/25 05:31:48;;;;;;;12.45;4.70;;;;;;;14.79;100.00;101419.34;4994538;28;20049;-57
2022/09/25 05:34:14;;;;;;;12.65;4.93;;;;;;;14.78;100.00;101428.47;5019918;28;20035;-52
2022/09/25 05:36:41;;;;;;;7.78;4.40;;;;;;;14.85;100.00;101423.06;5014432;28;20056;-52
2022/09/25 05:39:10;;;;;;;12.27;5.60;;;;;;;14.86;100.00;101425.53;5029787;28;20045;-53
2022/09/25 05:41:37;;;;;;;9.27;4.70;;;;;;;14.90;100.00;101426.78;5017882;28;20353;-50
2022/09/25 05:44:05;;;;;;;12.35;5.15;;;;;;;14.82;100.00;101427.00;5020454;28;20268;-53
2022/09/25 05:46:35;;;;;;;10.07;5.10;;;;;;;14.86;100.00;101424.72;4996756;28;20031;-54
2022/09/25 05:49:00;;;;;;;14.03;5.10;;;;;;;14.80;100.00;101423.69;5011988;28;20299;-51
2022/09/25 05:51:26;;;;;;;9.07;4.53;;;;;;;14.88;100.00;101417.25;5001676;28;20275;-52
2022/09/25 05:53:53;;;;;;;11.45;5.38;;;;;;;14.87;100.00;101421.00;5004304;28;20035;-55
2022/09/25 05:56:19;;;;;;;11.10;5.17;;;;;;;14.93;100.00;101424.72;4994299;28;20039;-54
2022/09/25 05:58:46;;;;;;;20.98;5.25;;;;;;;14.95;100.00;101428.03;5014157;28;20285;-53
2022/09/25 06:01:12;;;;;;;9.03;4.80;;;;;;;14.94;100.00;101416.41;4991864;28;20039;-52
2022/09/25 06:03:38;;;;;;;14.27;5.25;;;;;;;14.98;100.00;101417.66;5006666;28;20291;-52
2022/09/25 06:06:04;;;;;;;11.43;4.97;;;;;;;15.06;100.00;101427.38;5015133;28;20031;-55
2022/09/25 06:08:31;;;;;;;13.73;4.93;;;;;;;15.12;100.00;101423.84;4995806;28;20038;-52
2022/09/25 06:10:58;;;;;;;10.57;5.72;;;;;;;15.13;100.00;101427.34;4993754;28;20035;-52
2022/09/25 06:13:24;;;;;;;12.57;4.83;;;;;;;15.18;100.00;101436.47;5020749;28;20040;-51
2022/09/25 06:15:51;;;;;;;10.23;5.50;;;;;;;15.00;100.00;101428.22;5013936;28;20273;-55
2022/09/25 06:18:20;;;;;;;14.47;5.53;;;;;;;15.24;100.00;101432.09;4997042;28;20338;-56
2022/09/25 06:20:46;;;;;;;10.47;5.20;;;;;;;15.23;100.00;101432.31;5012125;28;20404;-56
2022/09/25 06:23:11;;;;;;;13.00;4.40;;;;;;;15.31;100.00;101432.91;4990987;28;20311;-52
2022/09/25 06:25:37;;;;;;;14.63;4.47;;;;;;;15.22;100.00;101439.53;5003580;28;20046;-55
2022/09/25 06:28:04;;;;;;;7.93;4.40;;;;;;;15.23;100.00;101445.78;4999330;28;20025;-54
2022/09/25 06:30:33;;;;;;;12.93;4.13;;;;;;;15.24;100.00;101448.28;5012518;28;20059;-55
2022/09/25 06:32:59;;;;;;;17.47;4.67;;;;;;;16.02;100.00;101448.38;5012505;28;20269;-55
2022/09/25 06:35:29;;;;;;;17.37;4.30;;;;;;;16.05;100.00;101445.22;5003951;28;20265;-57
2022/09/25 06:37:58;;;;;;;15.10;4.70;;;;;;;15.99;100.00;101448.81;4989095;28;20277;-57
2022/09/25 06:40:26;;;;;;;10.20;4.33;;;;;;;15.67;100.00;101440.63;5000381;28;20292;-54
2022/09/25 06:42:57;;;;;;;9.27;3.53;;;;;;;15.69;100.00;101443.97;5011586;28;20280;-54
2022/09/25 06:45:23;;;;;;;13.10;4.37;;;;;;;15.75;100.00;101438.50;5008948;28;20340;-52
2022/09/25 06:47:49;;;;;;;11.02;4.70;;;;;;;15.78;100.00;101434.56;5001167;28;20272;-55
2022/09/25 06:50:14;;;;;;;10.47;4.27;;;;;;;15.81;100.00;101436.03;4994787;28;20055;-54
2022/09/25 06:52:42;;;;;;;9.80;4.63;;;;;;;15.76;100.00;101433.97;5001075;28;20090;-54
2022/09/25 06:55:07;;;;;;;16.50;5.57;;;;;;;15.76;100.00;101436.66;5016421;28;20103;-53
2022/09/25 06:57:35;;;;;;;31.40;5.23;;;;;;;15.94;100.00;101445.94;4998467;28;20306;-54
2022/09/25 07:00:03;;;;;;;17.80;6.40;;;;;;;16.02;100.00;101448.38;5006878;28;20072;-53
2022/09/25 07:05:14;;;;;;;10.97;4.87;;;;;;;16.20;100.00;101445.75;4993427;28;20264;-52
2022/09/25 07:07:39;;;;;;;21.75;9.85;;;;;;;16.26;100.00;101443.22;5000966;28;20269;-56
2022/09/25 07:10:05;;;;;;;11.33;4.53;;;;;;;16.30;100.00;101444.44;5001286;28;20049;-54
2022/09/25 07:12:32;;;;;;;8.07;4.20;;;;;;;16.31;100.00;101440.69;4990598;28;20328;-56
2022/09/25 07:14:57;;;;;;;;;;;;;;;16.34;100.00;101453.75;4997278;28;20031;-55
2022/09/25 07:17:23;;;;;;;9.87;4.30;;;;;;;16.53;100.00;101449.25;5002854;28;19914;-56
2022/09/25 07:19:48;;;;;;;17.00;5.60;;;;;;;16.65;100.00;101457.47;4992368;28;20047;-53
2022/09/25 07:22:14;;;;;;;10.53;4.07;;;;;;;16.71;100.00;101463.81;5013950;28;20274;-56
2022/09/25 07:24:40;;;;;;;16.20;9.50;;;;;;;16.80;100.00;101458.97;4995462;28;20035;-57
2022/09/25 07:27:06;;;;;;;16.58;5.47;;;;;;;16.94;100.00;101462.38;5013156;28;20034;-54
2022/09/25 07:29:31;;;;;;;31.23;11.80;;;;;;;17.03;100.00;101463.78;5021746;28;20038;-56
2022/09/25 07:31:58;;;;;;;17.27;7.25;;;;;;;17.08;100.00;101465.81;5003499;28;20034;-58
2022/09/25 07:34:24;;;;;;;17.93;6.87;;;;;;;17.24;100.00;101469.81;4992637;28;20114;-58
2022/09/25 07:36:51;;;;;;;13.32;4.80;;;;;;;17.36;100.00;101467.19;5002636;28;20272;-55
2022/09/25 07:39:17;;;;;;;12.97;3.87;;;;;;;17.36;100.00;101457.19;4999565;28;20050;-52
2022/09/25 07:41:42;;;;;;;7.47;3.27;;;;;;;17.34;100.00;101462.81;5009674;28;20285;-54
2022/09/25 07:44:08;;;;;;;4.93;2.80;;;;;;;17.37;100.00;101466.94;5005727;28;20291;-53
2022/09/25 07:46:33;;;;;;;18.53;4.27;;;;;;;17.36;100.00;101462.59;5012254;28;20270;-57
2022/09/25 07:48:59;;;;;;;11.90;4.30;;;;;;;17.36;100.00;101457.19;4992138;28;20272;-54
2022/09/25 07:51:25;;;;;;;11.73;3.97;;;;;;;17.51;100.00;101458.69;5002185;28;20035;-53
2022/09/25 07:53:50;;;;;;;15.40;4.82;;;;;;;17.75;100.00;101449.63;5004979;28;20040;-56
2022/09/25 07:56:16;;;;;;;21.08;6.55;;;;;;;17.80;100.00;101457.06;5007211;28;20030;-54
2022/09/25 07:58:42;;;;;;;13.63;5.20;;;;;;;17.88;100.00;101454.03;4992686;28;20050;-54
2022/09/25 08:01:11;;;;;;;15.38;5.57;;;;;;;18.01;100.00;101457.63;5017270;28;20028;-57
2022/09/25 08:03:36;;;;;;;6.77;3.87;;;;;;;18.01;100.00;101457.63;5026045;28;20031;-57
2022/09/25 08:06:08;;;;;;;;;;;;;;;18.02;100.00;101459.28;5013324;28;20276;-56
2022/09/25 08:08:34;;;;;;;14.00;4.43;;;;;;;18.08;100.00;101458.38;5018406;28;19910;-56
2022/09/25 08:11:11;;;;;;;6.10;2.67;;;;;;;18.09;100.00;101460.00;5015843;28;20349;-55
2022/09/25 08:13:38;;;;;;;15.23;4.30;;;;;;;18.54;100.00;101466.00;5010713;28;20087;-57
2022/09/25 08:16:06;;;;;;;10.43;4.20;;;;;;;18.80;100.00;101463.88;5005604;28;20303;-55
2022/09/25 08:18:32;;;;;;;13.37;5.10;;;;;;;19.11;100.00;101464.59;5001794;28;20293;-57
2022/09/25 08:21:04;;;;;;;19.15;5.00;;;;;;;19.14;100.00;101458.69;4992397;28;20307;-55
2022/09/25 08:23:30;;;;;;;5.33;2.57;;;;;;;19.14;100.00;101464.13;5015532;28;20061;-56
2022/09/25 08:25:56;;;;;;;9.55;4.32;;;;;;;19.12;100.00;101471.66;5015305;28;20269;-56
2022/09/25 08:28:22;;;;;;;6.03;2.40;;;;;;;19.28;100.00;101468.22;4995223;28;20042;-55
2022/09/25 08:30:48;;;;;;;6.88;1.50;;;;;;;19.29;100.00;101466.38;5005410;28;20091;-55
2022/09/25 08:33:15;;;;;;;11.33;2.33;;;;;;;19.28;100.00;101468.22;4989162;28;20031;-51
2022/09/25 08:35:41;;;;;;;5.95;2.00;;;;;;;19.47;100.00;101470.78;5012592;28;20035;-52
2022/09/25 08:38:08;;;;;;;;;;;;;;;20.01;100.00;101466.97;5021911;28;20052;-51
2022/09/25 08:40:41;;;;;;;6.38;1.88;;;;;;;20.28;100.00;101466.34;5020516;28;19925;-54
2022/09/25 08:43:15;;;;;;;4.70;1.90;;;;;;;20.89;100.00;101468.41;5011920;28;20032;-53
2022/09/25 08:51:17;;;;;;;3.10;0.90;;;;;;;22.52;100.00;101462.59;4991199;28;20050;-56
2022/09/25 08:53:43;;;;;;;7.90;1.35;;;;;;;23.18;100.00;101470.41;5021584;28;20096;-57
2022/09/25 08:56:14;;;;;;;8.10;1.08;;;;;;;23.59;100.00;101464.28;5001444;28;20031;-55
2022/09/25 08:58:53;;;;;;;5.50;1.23;;;;;;;24.19;100.00;101474.78;4999508;28;20038;-52
2022/09/25 09:01:25;;;;;;;2.90;0.70;;;;;;;24.60;100.00;101470.41;5009629;28;20038;-55
2022/09/25 09:04:09;;;;;;;4.40;1.03;;;;;;;25.35;100.00;101477.88;5001383;28;20053;-52
2022/09/25 09:06:36;;;;;;;5.40;1.40;;;;;;;25.67;100.00;101472.31;4989588;28;20046;-52
2022/09/25 09:09:22;;;;;;;4.03;1.20;;;;;;;26.35;100.00;101473.50;4992546;28;20041;-56
2022/09/25 09:11:56;;;;;;;8.00;1.30;;;;;;;26.72;96.40;101471.22;4997890;28;20030;-53
2022/09/25 09:14:28;;;;;;;7.70;1.85;;;;;;;27.58;98.87;101475.22;5005464;28;20115;-56
2022/09/25 09:17:16;;;;;;;5.43;1.00;;;;;;;27.80;86.09;101482.84;5000957;28;20039;-56
2022/09/25 09:19:46;;;;;;;5.50;1.48;;;;;;;28.23;82.75;101481.94;4989840;28;20031;-55
2022/09/25 09:22:15;;;;;;;11.07;1.30;;;;;;;28.19;85.34;101481.75;4990834;28;20038;-56
2022/09/25 09:24:54;;;;;;;4.95;1.38;;;;;;;28.52;80.34;101480.91;4990887;28;20091;-55
2022/09/25 09:27:33;;;;;;;4.55;0.82;;;;;;;28.57;78.25;101482.72;5005823;28;20037;-57
2022/09/25 09:30:20;;;;;;;3.40;1.13;;;;;;;28.82;76.21;101475.16;4999934;28;20039;-56
2022/09/25 09:33:10;;;;;;;7.05;1.10;;;;;;;29.01;77.97;101466.81;5027984;28;20039;-59
2022/09/25 09:35:55;;;;;;;5.10;1.20;;;;;;;29.69;78.69;101467.03;4988648;28;20039;-57
2022/09/25 09:38:32;;;;;;;5.20;2.33;;;;;;;29.96;77.17;101472.75;4999185;28;20031;-58
2022/09/25 09:41:23;;;;;;;3.40;1.08;;;;;;;30.43;67.07;101469.69;4990695;28;20039;-56
2022/09/25 09:44:11;;;;;;;3.08;0.80;;;;;;;30.75;62.84;101467.75;5002111;28;20042;-55
2022/09/25 09:46:55;;;;;;;3.30;0.77;;;;;;;31.28;61.41;101468.75;4989016;28;20054;-55
2022/09/25 09:49:34;;;;;;;4.07;0.93;;;;;;;31.66;64.11;101472.03;4992537;28;20050;-56
2022/09/25 09:52:34;;;;;;;3.83;0.75;;;;;;;31.18;62.46;101460.75;5006348;28;20042;-58
2022/09/25 09:55:25;;;;;;;3.53;0.73;;;;;;;31.02;67.83;101465.88;5007413;28;20052;-56
2022/09/25 09:58:01;;;;;;;7.07;1.23;;;;;;;31.26;64.07;101464.69;4995228;28;20031;-54
2022/09/25 10:00:28;;;;;;;2.20;0.65;;;;;;;31.35;59.27;101456.41;4993469;28;20031;-55
2022/09/25 10:02:58;;;;;;;2.92;1.00;;;;;;;30.56;66.70;101452.19;4993753;28;20031;-57
2022/09/25 10:05:26;;;;;;;2.88;1.17;;;;;;;30.07;62.51;101454.03;4997656;28;20028;-55
2022/09/25 10:07:52;;;;;;;8.48;1.35;;;;;;;29.16;68.53;101454.66;5005713;28;20042;-55
2022/09/25 10:10:19;;;;;;;4.68;1.02;;;;;;;27.56;79.22;101444.44;5013664;28;20037;-55
2022/09/25 10:12:50;;;;;;;5.25;1.02;;;;;;;26.71;80.92;101444.91;5007085;28;20106;-57
2022/09/25 10:15:31;;;;;;;3.17;1.00;;;;;;;26.57;91.13;101440.09;4996699;28;20057;-55
2022/09/25 10:17:59;;;;;;;2.10;0.70;;;;;;;26.25;96.35;101432.44;5001454;28;20037;-55
2022/09/25 10:20:35;;;;;;;3.92;0.60;;;;;;;26.03;92.03;101439.16;4991878;28;20571;-53
2022/09/25 10:23:03;;;;;;;3.25;1.02;;;;;;;27.86;83.90;101434.13;5000644;28;20031;-57
2022/09/25 10:25:38;;;;;;;3.17;1.00;;;;;;;29.73;69.73;101445.16;4998192;28;20040;-59
2022/09/25 10:28:27;;;;;;;4.40;1.23;;;;;;;30.91;63.69;101446.06;5010396;28;20094;-56
2022/09/25 10:30:54;;;;;;;4.65;0.80;;;;;;;30.34;61.10;101442.03;4992761;28;20035;-57
2022/09/25 10:33:23;;;;;;;3.22;0.90;;;;;;;28.28;77.08;101437.03;5005387;28;20050;-56
2022/09/25 10:35:52;;;;;;;3.28;0.77;;;;;;;27.50;80.12;101440.94;5000847;28;20069;-54
2022/09/25 10:38:32;;;;;;;8.70;1.50;;;;;;;27.30;77.32;101437.38;5008417;28;20043;-54
2022/09/25 10:41:06;;;;;;;7.35;1.60;;;;;;;27.26;76.82;101430.00;4998075;28;20054;-54
2022/09/25 10:43:32;;;;;;;3.78;1.02;;;;;;;27.10;75.72;101432.13;5012333;28;20034;-56
2022/09/25 10:46:04;;;;;;;;;;;;;;;29.43;68.51;101442.81;5006455;28;20060;-56
2022/09/25 10:51:22;;;;;;;2.00;0.80;;;;;;;30.81;64.42;101449.09;4993216;28;20055;-57
2022/09/25 10:54:07;;;;;;;1.73;0.80;;;;;;;32.73;53.85;101457.72;5009796;28;20031;-57
2022/09/25 10:56:34;;;;;;;3.63;0.95;;;;;;;32.23;49.79;101459.16;5001540;28;20042;-57
2022/09/25 10:59:01;;;;;;;2.30;0.65;;;;;;;31.30;52.14;101449.91;4994907;28;20114;-56
2022/09/25 11:01:36;;;;;;;3.05;0.80;;;;;;;31.05;51.32;101448.69;5013098;28;20041;-58
2022/09/25 11:04:25;;;;;;;3.28;0.80;;;;;;;31.01;55.97;101442.16;4989376;28;20026;-59
2022/09/25 11:07:03;;;;;;;2.58;1.05;;;;;;;30.46;53.14;101436.75;4998611;28;20054;-56
2022/09/25 11:09:31;;;;;;;2.08;1.35;;;;;;;29.59;56.83;101437.78;5019789;28;20030;-55
2022/09/25 11:12:19;;;;;;;4.93;0.90;;;;;;;29.34;62.61;101434.44;5004752;28;20057;-55
2022/09/25 11:14:55;;;;;;;3.70;0.85;;;;;;;29.01;62.02;101436.53;5000263;28;20087;-53
2022/09/25 11:17:41;;;;;;;6.05;0.90;;;;;;;28.90;63.27;101435.94;4992754;28;20056;-54
2022/09/25 11:20:21;;;;;;;5.50;1.50;;;;;;;29.44;61.10;101438.13;4989908;28;20031;-54
2022/09/25 11:22:53;;;;;;;3.20;0.80;;;;;;;29.52;64.62;101428.31;5012763;28;20035;-55
2022/09/25 11:25:30;;;;;;;5.10;0.95;;;;;;;28.70;65.52;101424.16;5003350;28;20038;-57
2022/09/25 11:28:10;;;;;;;6.70;0.90;;;;;;;27.72;69.11;101428.59;5008437;28;20039;-56
2022/09/25 11:30:46;;;;;;;4.10;1.20;;;;;;;27.28;82.66;101414.88;5001703;28;20030;-56
2022/09/25 11:33:31;;;;;;;2.53;0.80;;;;;;;28.51;81.54;101429.78;4991529;28;20046;-56
2022/09/25 11:36:26;;;;;;;5.22;0.90;;;;;;;31.28;60.90;101430.06;5011276;28;20091;-57
2022/09/25 11:42:03;;;;;;;4.97;1.20;;;;;;;33.83;47.68;101430.25;5002308;28;20086;-58
2022/09/25 11:44:37;;;;;;;8.80;1.73;;;;;;;35.26;41.98;101438.16;4996754;28;20058;-58
2022/09/25 11:47:10;;;;;;;3.55;0.88;;;;;;;36.29;41.32;101426.72;4987278;28;20046;-57
2022/09/25 11:49:38;;;;;;;2.55;0.82;;;;;;;35.49;37.14;101428.47;5003639;28;20054;-60
2022/09/25 11:52:19;;;;;;;3.38;1.13;;;;;;;36.61;37.13;101417.56;4992185;28;20027;-58
2022/09/25 11:54:51;;;;;;;2.45;0.65;;;;;;;36.90;34.28;101415.41;4992338;28;20039;-58